Wichita, KS

11:04 AM CDT on September 02, 2015 (GMT -0500)
Wichita Mid-Continent | | Change Station
CLOSE
Current Station
Airport
Location: Wichita,
Elevation: 1332 ft
Nearby Weather Stations

Elev 1332 ft 37.65 °N, 97.43 °W | Updated 11 minutes ago

Partly Cloudy
Partly Cloudy
86 °F
Feels Like 89 °F
N
16
Wind Variable Wind from South
Gusts 24 mph

Today
High -- | Low -- °F
--% Chance of Precip.
Yesterday
High -- | Low -- °F
Precip. -- in
7:00 AM 7:57 PM
Waning Gibbous, 79% visible
Pressure 29.94 in
Visibility 10.0 miles
Clouds Few 12000 ft
Few 15000 ft
Few 20000 ft
Heat Index 89 °F
Dew Point 67 °F
Humidity 53%
Rainfall 0.00 in
Snow Depth Not available.
UV 6 out of 12
Pollen 11.50 out of 12
Air Quality Not available.
Flu Activity Not available.
METAR KICT 021553Z 19014G21KT 10SM FEW120 FEW150 FEW200 30/19 A2999 RMK AO2 SLP139 ACC VC SW-NW T03000194
Pressure 29.94 in
Visibility 10.0 miles
Clouds Few 12000 ft
Few 15000 ft
Few 20000 ft
Heat Index 89 °F
Dew Point 67 °F
Humidity 53%
Rainfall 0.00 in
Snow Depth Not available.
UV 6 out of 12
Pollen 11.50 out of 12
Air Quality Not available.
Flu Activity Not available.
METAR KICT 021553Z 19014G21KT 10SM FEW120 FEW150 FEW200 30/19 A2999 RMK AO2 SLP139 ACC VC SW-NW T03000194

10-Day Weather Forecast

×

Almanac

Astronomy

Sep. 02, 2015 Rise Set
Actual Time
Civil Twilight
Nautical Twilight
Astronomical Twilight
Moon
Length of Visible Light
Length of Day
Tomorrow will be .
, % of the Moon is Illuminated

Today's Extremes

State Highs State Lows

Community

WunderPhotos

Upload Photos

1,851,776 photos uploaded!

WunderBlogs® & News

Nearby

Air Quality

  Air Quality AQ Index Pollutant
Not available.

Snow Depth

Station Depth Elevation

Earthquake Activity

City Distance Mag. Time & Date
Minimum magnitude displayed is 2.5.

Coastal Water Temperatures

Place Temperature

Stations

Nearby Weather Stations

Station Location Temp. Windchill Dew Point Humidity Wind Precip. Elev Updated Type